Terminal Aerodrome Forecast
Issued by NWS

Home | Current Version | Previous Version | Graphics & Text | Print | Product List | Glossary On
Versions: 1 2 3 4 5 6 7 8 9 10 11 12 13 14 15
982
FTUS45 KGGW 181713 AAA
TAFSDY
TAF AMD
KSDY 181713Z 1817/1912 03013KT 6SM -SN BR BKN020 BKN060
     FM181800 01011KT P6SM OVC025
     FM190600 01005KT P6SM OVC045=

USA.gov is the U.S. government's official web portal to all federal, state and local government web resources and services.